sensor_id;sensor_type;location;lat;lon;timestamp;P1;durP1;ratioP1;P2;durP2;ratioP2
72895;SDS011;61036;53.224;6.554;2023-04-03T00:01:31;4.43;;;1.30;;
72895;SDS011;61036;53.224;6.554;2023-04-03T00:03:57;2.40;;;1.30;;
72895;SDS011;61036;53.224;6.554;2023-04-03T00:06:23;5.10;;;1.60;;
72895;SDS011;61036;53.224;6.554;2023-04-03T00:08:50;2.53;;;1.27;;
72895;SDS011;61036;53.224;6.554;2023-04-03T00:11:15;5.60;;;1.77;;
72895;SDS011;61036;53.224;6.554;2023-04-03T00:13:41;2.87;;;1.20;;
72895;SDS011;61036;53.224;6.554;2023-04-03T00:16:08;4.23;;;1.40;;
72895;SDS011;61036;53.224;6.554;2023-04-03T00:18:35;4.17;;;1.30;;
72895;SDS011;61036;53.224;6.554;2023-04-03T00:21:01;5.03;;;1.23;;
72895;SDS011;61036;53.224;6.554;2023-04-03T00:23:27;3.87;;;1.47;;
72895;SDS011;61036;53.224;6.554;2023-04-03T00:25:53;3.47;;;1.30;;
72895;SDS011;61036;53.224;6.554;2023-04-03T00:28:19;6.17;;;1.50;;
72895;SDS011;61036;53.224;6.554;2023-04-03T00:30:45;3.33;;;1.20;;
72895;SDS011;61036;53.224;6.554;2023-04-03T00:33:14;3.87;;;1.47;;
72895;SDS011;61036;53.224;6.554;2023-04-03T00:35:39;4.33;;;1.50;;
72895;SDS011;61036;53.224;6.554;2023-04-03T00:38:05;5.77;;;1.20;;
72895;SDS011;61036;53.224;6.554;2023-04-03T00:40:35;3.77;;;1.30;;
72895;SDS011;61036;53.224;6.554;2023-04-03T00:43:05;3.20;;;1.57;;
72895;SDS011;61036;53.224;6.554;2023-04-03T00:45:37;3.20;;;1.10;;
72895;SDS011;61036;53.224;6.554;2023-04-03T00:48:06;4.73;;;1.33;;
72895;SDS011;61036;53.224;6.554;2023-04-03T00:50:40;4.67;;;1.40;;
72895;SDS011;61036;53.224;6.554;2023-04-03T00:53:08;3.07;;;1.37;;
72895;SDS011;61036;53.224;6.554;2023-04-03T00:55:38;4.87;;;1.50;;
72895;SDS011;61036;53.224;6.554;2023-04-03T00:58:05;4.50;;;1.60;;
72895;SDS011;61036;53.224;6.554;2023-04-03T01:00:36;5.00;;;1.50;;
72895;SDS011;61036;53.224;6.554;2023-04-03T01:03:05;4.23;;;1.50;;
72895;SDS011;61036;53.224;6.554;2023-04-03T01:05:31;3.00;;;1.20;;
72895;SDS011;61036;53.224;6.554;2023-04-03T01:07:57;3.77;;;1.40;;
72895;SDS011;61036;53.224;6.554;2023-04-03T01:10:24;5.33;;;1.40;;
72895;SDS011;61036;53.224;6.554;2023-04-03T01:12:51;4.47;;;1.53;;
72895;SDS011;61036;53.224;6.554;2023-04-03T01:15:18;4.20;;;1.40;;
72895;SDS011;61036;53.224;6.554;2023-04-03T01:17:52;6.93;;;1.83;;
72895;SDS011;61036;53.224;6.554;2023-04-03T01:25:40;3.73;;;1.40;;
72895;SDS011;61036;53.224;6.554;2023-04-03T01:28:13;4.87;;;1.97;;
72895;SDS011;61036;53.224;6.554;2023-04-03T01:30:46;3.90;;;1.57;;
72895;SDS011;61036;53.224;6.554;2023-04-03T01:33:19;4.33;;;1.53;;
72895;SDS011;61036;53.224;6.554;2023-04-03T01:35:46;6.50;;;1.40;;
72895;SDS011;61036;53.224;6.554;2023-04-03T01:38:12;4.97;;;1.80;;
72895;SDS011;61036;53.224;6.554;2023-04-03T01:40:37;5.13;;;2.00;;
72895;SDS011;61036;53.224;6.554;2023-04-03T01:43:03;6.03;;;1.83;;
72895;SDS011;61036;53.224;6.554;2023-04-03T01:45:29;5.63;;;1.93;;
72895;SDS011;61036;53.224;6.554;2023-04-03T01:47:55;5.67;;;2.27;;
72895;SDS011;61036;53.224;6.554;2023-04-03T01:50:23;5.83;;;1.77;;
72895;SDS011;61036;53.224;6.554;2023-04-03T01:52:49;4.50;;;1.50;;
72895;SDS011;61036;53.224;6.554;2023-04-03T01:55:14;6.10;;;2.07;;
72895;SDS011;61036;53.224;6.554;2023-04-03T01:57:40;5.40;;;1.40;;
72895;SDS011;61036;53.224;6.554;2023-04-03T02:00:06;4.47;;;1.60;;
72895;SDS011;61036;53.224;6.554;2023-04-03T02:02:38;5.60;;;1.77;;
72895;SDS011;61036;53.224;6.554;2023-04-03T02:05:04;6.77;;;1.60;;
72895;SDS011;61036;53.224;6.554;2023-04-03T02:07:29;6.27;;;1.80;;
72895;SDS011;61036;53.224;6.554;2023-04-03T02:09:55;6.93;;;1.90;;
72895;SDS011;61036;53.224;6.554;2023-04-03T02:12:21;7.30;;;1.83;;
72895;SDS011;61036;53.224;6.554;2023-04-03T02:14:47;6.57;;;1.90;;
72895;SDS011;61036;53.224;6.554;2023-04-03T02:17:12;6.43;;;1.93;;
72895;SDS011;61036;53.224;6.554;2023-04-03T02:19:38;5.10;;;1.90;;
72895;SDS011;61036;53.224;6.554;2023-04-03T02:22:04;6.77;;;2.00;;
72895;SDS011;61036;53.224;6.554;2023-04-03T02:24:30;8.70;;;1.70;;
72895;SDS011;61036;53.224;6.554;2023-04-03T02:26:58;6.57;;;2.00;;
72895;SDS011;61036;53.224;6.554;2023-04-03T02:29:24;5.03;;;1.87;;
72895;SDS011;61036;53.224;6.554;2023-04-03T02:31:50;4.70;;;1.60;;
72895;SDS011;61036;53.224;6.554;2023-04-03T02:34:16;4.90;;;1.77;;
72895;SDS011;61036;53.224;6.554;2023-04-03T02:36:42;6.57;;;2.10;;
72895;SDS011;61036;53.224;6.554;2023-04-03T02:39:09;5.40;;;2.33;;
72895;SDS011;61036;53.224;6.554;2023-04-03T02:41:35;5.63;;;2.00;;
72895;SDS011;61036;53.224;6.554;2023-04-03T02:44:02;5.60;;;2.10;;
72895;SDS011;61036;53.224;6.554;2023-04-03T02:46:30;4.67;;;1.67;;
72895;SDS011;61036;53.224;6.554;2023-04-03T02:48:56;4.93;;;1.80;;
72895;SDS011;61036;53.224;6.554;2023-04-03T02:51:22;4.07;;;1.77;;
72895;SDS011;61036;53.224;6.554;2023-04-03T02:53:52;4.17;;;1.70;;
72895;SDS011;61036;53.224;6.554;2023-04-03T02:56:21;6.40;;;1.90;;
72895;SDS011;61036;53.224;6.554;2023-04-03T02:58:47;8.57;;;2.13;;
72895;SDS011;61036;53.224;6.554;2023-04-03T03:01:12;6.50;;;2.07;;
72895;SDS011;61036;53.224;6.554;2023-04-03T03:03:39;7.47;;;2.53;;
72895;SDS011;61036;53.224;6.554;2023-04-03T03:06:06;5.97;;;1.93;;
72895;SDS011;61036;53.224;6.554;2023-04-03T03:08:36;4.10;;;1.63;;
72895;SDS011;61036;53.224;6.554;2023-04-03T03:11:02;8.67;;;2.10;;
72895;SDS011;61036;53.224;6.554;2023-04-03T03:13:29;7.73;;;1.80;;
72895;SDS011;61036;53.224;6.554;2023-04-03T03:15:55;6.97;;;2.07;;
72895;SDS011;61036;53.224;6.554;2023-04-03T03:18:21;8.17;;;2.27;;
72895;SDS011;61036;53.224;6.554;2023-04-03T03:20:54;6.10;;;2.50;;
72895;SDS011;61036;53.224;6.554;2023-04-03T03:23:22;4.43;;;1.80;;
72895;SDS011;61036;53.224;6.554;2023-04-03T03:25:49;6.13;;;2.53;;
72895;SDS011;61036;53.224;6.554;2023-04-03T03:28:14;5.87;;;1.87;;
72895;SDS011;61036;53.224;6.554;2023-04-03T03:30:40;6.13;;;2.13;;
72895;SDS011;61036;53.224;6.554;2023-04-03T03:33:06;5.10;;;1.90;;
72895;SDS011;61036;53.224;6.554;2023-04-03T03:35:32;4.97;;;2.00;;
72895;SDS011;61036;53.224;6.554;2023-04-03T03:37:57;5.23;;;1.90;;
72895;SDS011;61036;53.224;6.554;2023-04-03T03:40:23;6.63;;;2.50;;
72895;SDS011;61036;53.224;6.554;2023-04-03T03:42:49;6.67;;;1.80;;
72895;SDS011;61036;53.224;6.554;2023-04-03T03:45:14;4.40;;;2.00;;
72895;SDS011;61036;53.224;6.554;2023-04-03T03:47:40;5.53;;;2.43;;
72895;SDS011;61036;53.224;6.554;2023-04-03T03:50:06;5.43;;;2.30;;
72895;SDS011;61036;53.224;6.554;2023-04-03T03:52:32;7.97;;;2.50;;
72895;SDS011;61036;53.224;6.554;2023-04-03T03:54:58;7.00;;;2.37;;
72895;SDS011;61036;53.224;6.554;2023-04-03T03:57:23;6.10;;;2.17;;
72895;SDS011;61036;53.224;6.554;2023-04-03T03:59:50;8.37;;;2.67;;
72895;SDS011;61036;53.224;6.554;2023-04-03T04:02:17;7.00;;;1.90;;
72895;SDS011;61036;53.224;6.554;2023-04-03T04:04:43;5.93;;;2.23;;
72895;SDS011;61036;53.224;6.554;2023-04-03T04:07:09;4.90;;;1.90;;
72895;SDS011;61036;53.224;6.554;2023-04-03T04:09:35;6.97;;;2.50;;
72895;SDS011;61036;53.224;6.554;2023-04-03T04:12:00;4.80;;;2.27;;
72895;SDS011;61036;53.224;6.554;2023-04-03T04:14:27;7.60;;;2.37;;
72895;SDS011;61036;53.224;6.554;2023-04-03T04:16:53;5.83;;;2.30;;
72895;SDS011;61036;53.224;6.554;2023-04-03T04:19:23;8.33;;;2.60;;
72895;SDS011;61036;53.224;6.554;2023-04-03T04:21:49;5.67;;;2.17;;
72895;SDS011;61036;53.224;6.554;2023-04-03T04:24:15;7.53;;;2.23;;
72895;SDS011;61036;53.224;6.554;2023-04-03T04:26:41;7.47;;;2.50;;
72895;SDS011;61036;53.224;6.554;2023-04-03T04:29:09;5.57;;;2.20;;
72895;SDS011;61036;53.224;6.554;2023-04-03T04:31:35;6.10;;;2.33;;
72895;SDS011;61036;53.224;6.554;2023-04-03T04:34:01;6.07;;;2.50;;
72895;SDS011;61036;53.224;6.554;2023-04-03T04:36:26;7.50;;;2.33;;
72895;SDS011;61036;53.224;6.554;2023-04-03T04:38:52;8.77;;;2.50;;
72895;SDS011;61036;53.224;6.554;2023-04-03T04:41:20;8.80;;;2.43;;
72895;SDS011;61036;53.224;6.554;2023-04-03T04:43:48;7.87;;;2.93;;
72895;SDS011;61036;53.224;6.554;2023-04-03T04:46:14;7.60;;;2.50;;
72895;SDS011;61036;53.224;6.554;2023-04-03T04:48:46;5.60;;;2.63;;
72895;SDS011;61036;53.224;6.554;2023-04-03T04:51:12;7.13;;;3.10;;
72895;SDS011;61036;53.224;6.554;2023-04-03T04:53:38;8.47;;;2.37;;
72895;SDS011;61036;53.224;6.554;2023-04-03T04:56:04;7.40;;;2.90;;
72895;SDS011;61036;53.224;6.554;2023-04-03T04:58:32;10.93;;;2.60;;
72895;SDS011;61036;53.224;6.554;2023-04-03T05:01:00;8.90;;;2.53;;
72895;SDS011;61036;53.224;6.554;2023-04-03T05:03:36;7.27;;;2.97;;
72895;SDS011;61036;53.224;6.554;2023-04-03T05:06:03;6.20;;;2.83;;
72895;SDS011;61036;53.224;6.554;2023-04-03T05:08:30;6.87;;;3.17;;
72895;SDS011;61036;53.224;6.554;2023-04-03T05:10:56;8.43;;;3.03;;
72895;SDS011;61036;53.224;6.554;2023-04-03T05:13:23;7.77;;;2.90;;
72895;SDS011;61036;53.224;6.554;2023-04-03T05:15:49;8.90;;;3.33;;
72895;SDS011;61036;53.224;6.554;2023-04-03T05:18:15;9.33;;;3.40;;
72895;SDS011;61036;53.224;6.554;2023-04-03T05:20:41;6.20;;;2.90;;
72895;SDS011;61036;53.224;6.554;2023-04-03T05:23:09;11.93;;;3.70;;
72895;SDS011;61036;53.224;6.554;2023-04-03T05:25:36;8.57;;;3.20;;
72895;SDS011;61036;53.224;6.554;2023-04-03T05:28:04;9.40;;;3.23;;
72895;SDS011;61036;53.224;6.554;2023-04-03T05:30:30;7.40;;;2.70;;
72895;SDS011;61036;53.224;6.554;2023-04-03T05:32:55;9.27;;;3.23;;
72895;SDS011;61036;53.224;6.554;2023-04-03T05:35:31;8.67;;;2.80;;
72895;SDS011;61036;53.224;6.554;2023-04-03T05:37:59;6.57;;;2.70;;
72895;SDS011;61036;53.224;6.554;2023-04-03T05:40:25;9.03;;;3.27;;
72895;SDS011;61036;53.224;6.554;2023-04-03T05:42:54;8.60;;;3.50;;
72895;SDS011;61036;53.224;6.554;2023-04-03T05:45:22;6.77;;;2.47;;
72895;SDS011;61036;53.224;6.554;2023-04-03T05:47:47;6.80;;;2.63;;
72895;SDS011;61036;53.224;6.554;2023-04-03T05:50:13;6.83;;;2.77;;
72895;SDS011;61036;53.224;6.554;2023-04-03T05:52:40;8.63;;;2.90;;
72895;SDS011;61036;53.224;6.554;2023-04-03T05:55:10;9.43;;;3.07;;
72895;SDS011;61036;53.224;6.554;2023-04-03T05:57:36;8.50;;;2.83;;
72895;SDS011;61036;53.224;6.554;2023-04-03T06:00:04;8.97;;;2.63;;
72895;SDS011;61036;53.224;6.554;2023-04-03T06:02:39;6.77;;;2.50;;
72895;SDS011;61036;53.224;6.554;2023-04-03T06:05:06;7.20;;;2.87;;
72895;SDS011;61036;53.224;6.554;2023-04-03T06:07:34;8.30;;;2.70;;
72895;SDS011;61036;53.224;6.554;2023-04-03T06:09:59;8.20;;;3.10;;
72895;SDS011;61036;53.224;6.554;2023-04-03T06:12:26;8.07;;;2.83;;
72895;SDS011;61036;53.224;6.554;2023-04-03T06:14:54;8.10;;;2.77;;
72895;SDS011;61036;53.224;6.554;2023-04-03T06:17:19;10.60;;;3.40;;
72895;SDS011;61036;53.224;6.554;2023-04-03T06:19:46;9.00;;;2.60;;
72895;SDS011;61036;53.224;6.554;2023-04-03T06:22:12;9.97;;;3.33;;
72895;SDS011;61036;53.224;6.554;2023-04-03T06:24:38;11.90;;;2.93;;
72895;SDS011;61036;53.224;6.554;2023-04-03T06:27:04;10.23;;;3.00;;
72895;SDS011;61036;53.224;6.554;2023-04-03T06:29:30;7.60;;;2.97;;
72895;SDS011;61036;53.224;6.554;2023-04-03T06:31:55;8.63;;;2.73;;
72895;SDS011;61036;53.224;6.554;2023-04-03T06:34:21;9.67;;;3.10;;
72895;SDS011;61036;53.224;6.554;2023-04-03T06:36:47;5.17;;;2.37;;
72895;SDS011;61036;53.224;6.554;2023-04-03T06:39:20;9.83;;;2.87;;
72895;SDS011;61036;53.224;6.554;2023-04-03T06:41:47;7.80;;;2.13;;
72895;SDS011;61036;53.224;6.554;2023-04-03T06:44:14;8.27;;;3.10;;
72895;SDS011;61036;53.224;6.554;2023-04-03T06:46:41;6.47;;;2.87;;
72895;SDS011;61036;53.224;6.554;2023-04-03T06:49:08;7.43;;;2.63;;
72895;SDS011;61036;53.224;6.554;2023-04-03T06:51:35;5.93;;;2.70;;
72895;SDS011;61036;53.224;6.554;2023-04-03T06:54:01;11.10;;;2.67;;
72895;SDS011;61036;53.224;6.554;2023-04-03T06:56:27;7.80;;;2.67;;
72895;SDS011;61036;53.224;6.554;2023-04-03T06:58:54;7.63;;;2.97;;
72895;SDS011;61036;53.224;6.554;2023-04-03T07:01:22;8.83;;;2.90;;
72895;SDS011;61036;53.224;6.554;2023-04-03T07:03:51;7.07;;;2.90;;
72895;SDS011;61036;53.224;6.554;2023-04-03T07:06:17;7.07;;;2.40;;
72895;SDS011;61036;53.224;6.554;2023-04-03T07:08:43;7.10;;;2.50;;
72895;SDS011;61036;53.224;6.554;2023-04-03T07:11:10;7.03;;;2.53;;
72895;SDS011;61036;53.224;6.554;2023-04-03T07:13:36;8.37;;;2.80;;
72895;SDS011;61036;53.224;6.554;2023-04-03T07:16:02;8.30;;;2.60;;
72895;SDS011;61036;53.224;6.554;2023-04-03T07:18:30;8.47;;;2.60;;
72895;SDS011;61036;53.224;6.554;2023-04-03T07:20:56;6.73;;;2.60;;
72895;SDS011;61036;53.224;6.554;2023-04-03T07:23:22;5.50;;;2.30;;
72895;SDS011;61036;53.224;6.554;2023-04-03T07:25:48;9.97;;;2.80;;
72895;SDS011;61036;53.224;6.554;2023-04-03T07:28:16;6.63;;;2.20;;
72895;SDS011;61036;53.224;6.554;2023-04-03T07:30:46;9.17;;;3.00;;
72895;SDS011;61036;53.224;6.554;2023-04-03T07:33:26;7.30;;;2.57;;
72895;SDS011;61036;53.224;6.554;2023-04-03T07:35:51;6.73;;;2.40;;
72895;SDS011;61036;53.224;6.554;2023-04-03T07:38:17;7.80;;;2.47;;
72895;SDS011;61036;53.224;6.554;2023-04-03T07:40:46;8.20;;;2.40;;
72895;SDS011;61036;53.224;6.554;2023-04-03T07:43:13;10.53;;;3.10;;
72895;SDS011;61036;53.224;6.554;2023-04-03T07:45:40;7.67;;;2.20;;
72895;SDS011;61036;53.224;6.554;2023-04-03T07:48:06;5.47;;;1.87;;
72895;SDS011;61036;53.224;6.554;2023-04-03T07:50:32;9.70;;;3.07;;
72895;SDS011;61036;53.224;6.554;2023-04-03T07:52:57;6.77;;;2.40;;
72895;SDS011;61036;53.224;6.554;2023-04-03T07:55:24;7.97;;;3.37;;
72895;SDS011;61036;53.224;6.554;2023-04-03T07:57:50;7.17;;;2.50;;
72895;SDS011;61036;53.224;6.554;2023-04-03T08:00:16;6.43;;;2.40;;
72895;SDS011;61036;53.224;6.554;2023-04-03T08:02:43;8.37;;;2.50;;
72895;SDS011;61036;53.224;6.554;2023-04-03T08:05:10;8.40;;;2.17;;
72895;SDS011;61036;53.224;6.554;2023-04-03T08:07:37;6.93;;;2.13;;
72895;SDS011;61036;53.224;6.554;2023-04-03T08:10:02;7.23;;;2.53;;
72895;SDS011;61036;53.224;6.554;2023-04-03T08:12:28;8.33;;;2.20;;
72895;SDS011;61036;53.224;6.554;2023-04-03T08:14:55;7.70;;;2.77;;
72895;SDS011;61036;53.224;6.554;2023-04-03T08:17:20;8.17;;;2.63;;
72895;SDS011;61036;53.224;6.554;2023-04-03T08:19:46;5.50;;;2.27;;
72895;SDS011;61036;53.224;6.554;2023-04-03T08:22:12;6.13;;;2.27;;
72895;SDS011;61036;53.224;6.554;2023-04-03T08:24:37;7.43;;;2.10;;
72895;SDS011;61036;53.224;6.554;2023-04-03T08:27:03;8.17;;;2.47;;
72895;SDS011;61036;53.224;6.554;2023-04-03T08:29:29;5.37;;;1.90;;
72895;SDS011;61036;53.224;6.554;2023-04-03T08:31:54;7.30;;;2.23;;
72895;SDS011;61036;53.224;6.554;2023-04-03T08:34:20;6.03;;;2.07;;
72895;SDS011;61036;53.224;6.554;2023-04-03T08:36:46;7.30;;;2.30;;
72895;SDS011;61036;53.224;6.554;2023-04-03T08:39:12;6.93;;;2.67;;
72895;SDS011;61036;53.224;6.554;2023-04-03T08:41:44;6.00;;;2.20;;
72895;SDS011;61036;53.224;6.554;2023-04-03T08:50:11;5.70;;;2.23;;
72895;SDS011;61036;53.224;6.554;2023-04-03T08:52:42;7.57;;;2.60;;
72895;SDS011;61036;53.224;6.554;2023-04-03T08:55:24;5.43;;;1.77;;
72895;SDS011;61036;53.224;6.554;2023-04-03T08:58:06;4.50;;;1.60;;
72895;SDS011;61036;53.224;6.554;2023-04-03T09:03:36;6.07;;;1.30;;
72895;SDS011;61036;53.224;6.554;2023-04-03T09:06:05;2.23;;;1.13;;
72895;SDS011;61036;53.224;6.554;2023-04-03T09:14:02;4.27;;;1.37;;
72895;SDS011;61036;53.224;6.554;2023-04-03T09:21:52;3.50;;;1.50;;
72895;SDS011;61036;53.224;6.554;2023-04-03T09:24:18;6.10;;;1.80;;
72895;SDS011;61036;53.224;6.554;2023-04-03T09:26:57;3.73;;;1.60;;
72895;SDS011;61036;53.224;6.554;2023-04-03T09:29:27;5.27;;;1.63;;
72895;SDS011;61036;53.224;6.554;2023-04-03T09:31:56;5.27;;;1.80;;
72895;SDS011;61036;53.224;6.554;2023-04-03T09:34:26;4.80;;;1.53;;
72895;SDS011;61036;53.224;6.554;2023-04-03T09:36:54;4.23;;;1.53;;
72895;SDS011;61036;53.224;6.554;2023-04-03T09:39:23;4.60;;;1.70;;
72895;SDS011;61036;53.224;6.554;2023-04-03T09:42:01;2.53;;;1.10;;
72895;SDS011;61036;53.224;6.554;2023-04-03T09:44:36;5.73;;;1.70;;
72895;SDS011;61036;53.224;6.554;2023-04-03T09:47:21;3.93;;;1.57;;
72895;SDS011;61036;53.224;6.554;2023-04-03T09:49:50;5.30;;;1.50;;
72895;SDS011;61036;53.224;6.554;2023-04-03T09:52:25;4.73;;;1.60;;
72895;SDS011;61036;53.224;6.554;2023-04-03T09:54:51;4.07;;;1.70;;
72895;SDS011;61036;53.224;6.554;2023-04-03T09:57:17;3.90;;;1.40;;
72895;SDS011;61036;53.224;6.554;2023-04-03T10:00:02;4.57;;;1.60;;
72895;SDS011;61036;53.224;6.554;2023-04-03T10:02:32;3.93;;;1.33;;
72895;SDS011;61036;53.224;6.554;2023-04-03T10:05:00;4.30;;;1.40;;
72895;SDS011;61036;53.224;6.554;2023-04-03T10:07:36;4.00;;;1.30;;
72895;SDS011;61036;53.224;6.554;2023-04-03T10:10:19;3.87;;;1.50;;
72895;SDS011;61036;53.224;6.554;2023-04-03T10:12:48;3.50;;;1.20;;
72895;SDS011;61036;53.224;6.554;2023-04-03T10:15:14;4.83;;;1.80;;
72895;SDS011;61036;53.224;6.554;2023-04-03T10:18:02;4.33;;;1.37;;
72895;SDS011;61036;53.224;6.554;2023-04-03T10:20:43;3.30;;;1.23;;
72895;SDS011;61036;53.224;6.554;2023-04-03T10:30:58;3.00;;;1.00;;
72895;SDS011;61036;53.224;6.554;2023-04-03T10:33:46;3.97;;;1.23;;
72895;SDS011;61036;53.224;6.554;2023-04-03T10:47:28;3.27;;;1.13;;
72895;SDS011;61036;53.224;6.554;2023-04-03T10:57:52;3.67;;;1.30;;
72895;SDS011;61036;53.224;6.554;2023-04-03T11:00:22;2.70;;;1.13;;
72895;SDS011;61036;53.224;6.554;2023-04-03T11:02:56;3.00;;;1.30;;
72895;SDS011;61036;53.224;6.554;2023-04-03T11:05:35;3.83;;;1.20;;
72895;SDS011;61036;53.224;6.554;2023-04-03T11:08:10;3.17;;;1.10;;
72895;SDS011;61036;53.224;6.554;2023-04-03T11:10:41;3.30;;;1.30;;
72895;SDS011;61036;53.224;6.554;2023-04-03T11:15:41;2.93;;;1.13;;
72895;SDS011;61036;53.224;6.554;2023-04-03T11:18:11;5.00;;;1.33;;
72895;SDS011;61036;53.224;6.554;2023-04-03T11:20:42;3.53;;;1.33;;
72895;SDS011;61036;53.224;6.554;2023-04-03T11:23:26;4.47;;;1.20;;
72895;SDS011;61036;53.224;6.554;2023-04-03T11:25:55;3.57;;;0.97;;
72895;SDS011;61036;53.224;6.554;2023-04-03T11:28:32;3.67;;;1.07;;
72895;SDS011;61036;53.224;6.554;2023-04-03T11:36:43;2.97;;;1.20;;
72895;SDS011;61036;53.224;6.554;2023-04-03T11:41:48;3.97;;;1.50;;
72895;SDS011;61036;53.224;6.554;2023-04-03T11:47:06;3.53;;;1.20;;
72895;SDS011;61036;53.224;6.554;2023-04-03T11:49:56;3.00;;;1.10;;
72895;SDS011;61036;53.224;6.554;2023-04-03T12:26:44;3.90;;;1.30;;
72895;SDS011;61036;53.224;6.554;2023-04-03T12:29:14;4.40;;;1.23;;
72895;SDS011;61036;53.224;6.554;2023-04-03T12:31:55;4.70;;;1.30;;
72895;SDS011;61036;53.224;6.554;2023-04-03T12:40:27;3.70;;;1.07;;
72895;SDS011;61036;53.224;6.554;2023-04-03T12:46:03;2.97;;;1.20;;
72895;SDS011;61036;53.224;6.554;2023-04-03T12:48:39;4.93;;;1.53;;
72895;SDS011;61036;53.224;6.554;2023-04-03T12:51:14;5.53;;;1.30;;
72895;SDS011;61036;53.224;6.554;2023-04-03T12:53:51;4.20;;;1.40;;
72895;SDS011;61036;53.224;6.554;2023-04-03T12:56:26;3.83;;;1.20;;
72895;SDS011;61036;53.224;6.554;2023-04-03T12:58:55;2.70;;;1.20;;
72895;SDS011;61036;53.224;6.554;2023-04-03T13:01:37;3.57;;;1.40;;
72895;SDS011;61036;53.224;6.554;2023-04-03T13:04:03;3.03;;;1.00;;
72895;SDS011;61036;53.224;6.554;2023-04-03T13:06:42;3.87;;;1.10;;
72895;SDS011;61036;53.224;6.554;2023-04-03T13:09:18;3.73;;;1.30;;
72895;SDS011;61036;53.224;6.554;2023-04-03T13:12:12;2.97;;;1.00;;
72895;SDS011;61036;53.224;6.554;2023-04-03T13:14:39;1.87;;;0.93;;
72895;SDS011;61036;53.224;6.554;2023-04-03T13:17:09;3.37;;;1.30;;
72895;SDS011;61036;53.224;6.554;2023-04-03T13:19:39;2.47;;;1.17;;
72895;SDS011;61036;53.224;6.554;2023-04-03T13:22:08;2.57;;;1.00;;
72895;SDS011;61036;53.224;6.554;2023-04-03T13:24:46;4.57;;;1.50;;
72895;SDS011;61036;53.224;6.554;2023-04-03T13:27:15;2.73;;;1.10;;
72895;SDS011;61036;53.224;6.554;2023-04-03T13:29:42;2.97;;;1.00;;
72895;SDS011;61036;53.224;6.554;2023-04-03T13:32:14;4.20;;;1.07;;
72895;SDS011;61036;53.224;6.554;2023-04-03T13:34:44;3.80;;;1.13;;
72895;SDS011;61036;53.224;6.554;2023-04-03T13:37:26;3.63;;;1.30;;
72895;SDS011;61036;53.224;6.554;2023-04-03T13:39:57;3.00;;;1.30;;
72895;SDS011;61036;53.224;6.554;2023-04-03T13:42:26;3.70;;;0.97;;
72895;SDS011;61036;53.224;6.554;2023-04-03T13:45:11;3.13;;;1.20;;
72895;SDS011;61036;53.224;6.554;2023-04-03T13:47:46;3.97;;;1.60;;
72895;SDS011;61036;53.224;6.554;2023-04-03T13:50:17;3.47;;;1.20;;
72895;SDS011;61036;53.224;6.554;2023-04-03T13:52:50;3.50;;;1.17;;
72895;SDS011;61036;53.224;6.554;2023-04-03T13:55:26;4.10;;;1.30;;
72895;SDS011;61036;53.224;6.554;2023-04-03T14:00:36;4.10;;;1.60;;
72895;SDS011;61036;53.224;6.554;2023-04-03T14:03:27;4.83;;;1.40;;
72895;SDS011;61036;53.224;6.554;2023-04-03T14:06:05;3.73;;;1.70;;
72895;SDS011;61036;53.224;6.554;2023-04-03T14:08:32;4.33;;;1.50;;
72895;SDS011;61036;53.224;6.554;2023-04-03T14:10:58;5.27;;;1.80;;
72895;SDS011;61036;53.224;6.554;2023-04-03T14:13:23;2.90;;;1.30;;
72895;SDS011;61036;53.224;6.554;2023-04-03T14:15:49;4.03;;;1.60;;
72895;SDS011;61036;53.224;6.554;2023-04-03T14:18:17;4.20;;;1.67;;
72895;SDS011;61036;53.224;6.554;2023-04-03T14:20:45;3.90;;;1.50;;
72895;SDS011;61036;53.224;6.554;2023-04-03T14:23:12;4.17;;;1.50;;
72895;SDS011;61036;53.224;6.554;2023-04-03T14:25:38;5.17;;;1.50;;
72895;SDS011;61036;53.224;6.554;2023-04-03T14:28:20;4.27;;;1.50;;
72895;SDS011;61036;53.224;6.554;2023-04-03T14:30:47;5.33;;;1.53;;
72895;SDS011;61036;53.224;6.554;2023-04-03T14:33:16;3.27;;;1.10;;
72895;SDS011;61036;53.224;6.554;2023-04-03T14:35:43;5.57;;;1.70;;
72895;SDS011;61036;53.224;6.554;2023-04-03T14:40:47;3.00;;;1.20;;
72895;SDS011;61036;53.224;6.554;2023-04-03T14:43:12;4.60;;;1.57;;
72895;SDS011;61036;53.224;6.554;2023-04-03T14:45:40;4.53;;;1.70;;
72895;SDS011;61036;53.224;6.554;2023-04-03T14:48:06;3.77;;;1.60;;
72895;SDS011;61036;53.224;6.554;2023-04-03T14:50:41;3.77;;;1.57;;
72895;SDS011;61036;53.224;6.554;2023-04-03T14:53:06;3.87;;;1.40;;
72895;SDS011;61036;53.224;6.554;2023-04-03T14:55:32;4.40;;;1.30;;
72895;SDS011;61036;53.224;6.554;2023-04-03T14:57:58;4.23;;;1.20;;
72895;SDS011;61036;53.224;6.554;2023-04-03T15:00:25;2.30;;;1.10;;
72895;SDS011;61036;53.224;6.554;2023-04-03T15:02:51;4.57;;;1.47;;
72895;SDS011;61036;53.224;6.554;2023-04-03T15:05:16;4.00;;;1.27;;
72895;SDS011;61036;53.224;6.554;2023-04-03T15:07:43;4.47;;;1.20;;
72895;SDS011;61036;53.224;6.554;2023-04-03T15:10:20;5.20;;;1.47;;
72895;SDS011;61036;53.224;6.554;2023-04-03T15:12:49;4.20;;;1.50;;
72895;SDS011;61036;53.224;6.554;2023-04-03T15:15:16;3.33;;;1.30;;
72895;SDS011;61036;53.224;6.554;2023-04-03T15:17:42;4.93;;;1.60;;
72895;SDS011;61036;53.224;6.554;2023-04-03T15:20:11;4.93;;;1.77;;
72895;SDS011;61036;53.224;6.554;2023-04-03T15:22:48;2.77;;;1.40;;
72895;SDS011;61036;53.224;6.554;2023-04-03T15:25:14;4.77;;;1.70;;
72895;SDS011;61036;53.224;6.554;2023-04-03T15:27:40;3.43;;;1.00;;
72895;SDS011;61036;53.224;6.554;2023-04-03T15:30:06;4.83;;;1.67;;
72895;SDS011;61036;53.224;6.554;2023-04-03T15:32:36;3.37;;;1.60;;
72895;SDS011;61036;53.224;6.554;2023-04-03T15:35:01;4.37;;;1.53;;
72895;SDS011;61036;53.224;6.554;2023-04-03T15:37:27;3.43;;;1.20;;
72895;SDS011;61036;53.224;6.554;2023-04-03T15:39:52;2.87;;;0.90;;
72895;SDS011;61036;53.224;6.554;2023-04-03T15:42:18;2.20;;;1.03;;
72895;SDS011;61036;53.224;6.554;2023-04-03T15:44:44;3.50;;;1.00;;
72895;SDS011;61036;53.224;6.554;2023-04-03T15:47:09;4.63;;;1.20;;
72895;SDS011;61036;53.224;6.554;2023-04-03T15:49:35;2.93;;;1.40;;
72895;SDS011;61036;53.224;6.554;2023-04-03T15:52:02;3.17;;;1.30;;
72895;SDS011;61036;53.224;6.554;2023-04-03T15:54:28;3.80;;;1.10;;
72895;SDS011;61036;53.224;6.554;2023-04-03T15:56:54;4.93;;;1.40;;
72895;SDS011;61036;53.224;6.554;2023-04-03T15:59:20;4.05;;;1.40;;
72895;SDS011;61036;53.224;6.554;2023-04-03T16:01:46;5.43;;;1.20;;
72895;SDS011;61036;53.224;6.554;2023-04-03T16:04:11;3.97;;;1.20;;
72895;SDS011;61036;53.224;6.554;2023-04-03T16:06:37;2.67;;;1.10;;
72895;SDS011;61036;53.224;6.554;2023-04-03T16:09:03;4.10;;;1.50;;
72895;SDS011;61036;53.224;6.554;2023-04-03T16:11:29;2.87;;;1.20;;
72895;SDS011;61036;53.224;6.554;2023-04-03T16:13:55;7.90;;;1.43;;
72895;SDS011;61036;53.224;6.554;2023-04-03T16:16:21;2.97;;;1.10;;
72895;SDS011;61036;53.224;6.554;2023-04-03T16:18:48;4.70;;;1.70;;
72895;SDS011;61036;53.224;6.554;2023-04-03T16:21:15;4.67;;;1.60;;
72895;SDS011;61036;53.224;6.554;2023-04-03T16:23:42;4.33;;;1.60;;
72895;SDS011;61036;53.224;6.554;2023-04-03T16:26:08;6.27;;;1.40;;
72895;SDS011;61036;53.224;6.554;2023-04-03T16:28:34;4.67;;;1.13;;
72895;SDS011;61036;53.224;6.554;2023-04-03T16:31:00;4.63;;;1.37;;
72895;SDS011;61036;53.224;6.554;2023-04-03T16:33:26;4.50;;;1.30;;
72895;SDS011;61036;53.224;6.554;2023-04-03T16:35:52;5.10;;;1.40;;
72895;SDS011;61036;53.224;6.554;2023-04-03T16:38:18;3.83;;;1.23;;
72895;SDS011;61036;53.224;6.554;2023-04-03T16:40:45;3.63;;;1.40;;
72895;SDS011;61036;53.224;6.554;2023-04-03T16:43:11;3.83;;;1.30;;
72895;SDS011;61036;53.224;6.554;2023-04-03T16:45:36;4.63;;;1.60;;
72895;SDS011;61036;53.224;6.554;2023-04-03T16:48:02;4.77;;;1.70;;
72895;SDS011;61036;53.224;6.554;2023-04-03T16:50:28;4.23;;;1.40;;